createdAt,value
2024-03-05T00:01:38.486Z,7.93
2024-03-05T00:04:06.437Z,7.91
2024-03-05T00:06:34.590Z,7.92
2024-03-05T00:09:02.133Z,7.88
2024-03-05T00:11:29.506Z,7.84
2024-03-05T00:13:57.238Z,7.79
2024-03-05T00:16:25.150Z,7.78
2024-03-05T00:18:52.378Z,7.80
2024-03-05T00:21:19.993Z,7.77
2024-03-05T00:23:47.779Z,7.77
2024-03-05T00:26:19.565Z,7.80
2024-03-05T00:28:47.240Z,7.80
2024-03-05T00:31:15.198Z,7.77
2024-03-05T00:33:42.562Z,7.75
2024-03-05T00:36:10.048Z,7.73
2024-03-05T00:38:37.811Z,7.72
2024-03-05T00:41:05.180Z,7.69
2024-03-05T00:43:32.800Z,7.69
2024-03-05T00:46:01.351Z,7.70
2024-03-05T00:48:32.800Z,7.68
2024-03-05T00:51:00.105Z,7.63
2024-03-05T00:53:27.669Z,7.58
2024-03-05T00:55:56.387Z,7.54
2024-03-05T00:58:23.779Z,7.50
2024-03-05T01:00:51.698Z,7.45
2024-03-05T01:03:19.552Z,7.44
2024-03-05T01:05:47.933Z,7.48
2024-03-05T01:08:15.416Z,7.46
2024-03-05T01:10:46.036Z,7.39
2024-03-05T01:13:14.552Z,7.41
2024-03-05T01:15:42.214Z,7.46
2024-03-05T01:18:10.528Z,7.49
2024-03-05T01:20:40.389Z,7.48
2024-03-05T01:23:10.920Z,7.46
2024-03-05T01:25:38.818Z,7.47
2024-03-05T01:28:08.787Z,7.46
2024-03-05T01:30:37.594Z,7.46
2024-03-05T01:33:07.642Z,7.56
2024-03-05T01:35:35.221Z,7.58
2024-03-05T01:38:03.371Z,7.53
2024-03-05T01:40:30.791Z,7.49
2024-03-05T01:42:59.130Z,7.50
2024-03-05T01:45:27.085Z,7.49
2024-03-05T01:47:54.658Z,7.51
2024-03-05T01:50:23.727Z,7.49
2024-03-05T01:52:52.004Z,7.49
2024-03-05T01:55:20.121Z,7.50
2024-03-05T01:57:50.642Z,7.53
2024-03-05T02:00:21.502Z,7.54
2024-03-05T02:02:50.146Z,7.52
2024-03-05T02:05:18.319Z,7.48
2024-03-05T02:07:46.664Z,7.45
2024-03-05T02:10:14.847Z,7.43
2024-03-05T02:12:42.560Z,7.41
2024-03-05T02:15:13.888Z,7.43
2024-03-05T02:17:43.457Z,7.41
2024-03-05T02:20:14.425Z,7.36
2024-03-05T02:22:43.482Z,7.32
2024-03-05T02:25:11.646Z,7.27
2024-03-05T02:27:39.444Z,7.28
2024-03-05T02:30:11.316Z,7.31
2024-03-05T02:32:42.184Z,7.30
2024-03-05T02:35:11.605Z,7.30
2024-03-05T02:37:40.289Z,7.29
2024-03-05T02:40:16.017Z,7.25
2024-03-05T02:42:44.009Z,7.23
2024-03-05T02:45:11.994Z,7.26
2024-03-05T02:47:41.753Z,7.26
2024-03-05T02:50:12.704Z,7.21
2024-03-05T02:52:40.654Z,7.16
2024-03-05T02:55:11.847Z,7.11
2024-03-05T02:57:43.075Z,7.15
2024-03-05T03:00:21.749Z,7.11
2024-03-05T03:02:50.177Z,7.09
2024-03-05T03:05:21.941Z,7.09
2024-03-05T03:07:50.015Z,7.12
2024-03-05T03:10:18.156Z,7.12
2024-03-05T03:12:49.045Z,7.13
2024-03-05T03:15:20.647Z,7.16
2024-03-05T03:17:49.061Z,7.19
2024-03-05T03:20:17.232Z,7.22
2024-03-05T03:22:44.851Z,7.24
2024-03-05T03:25:13.714Z,7.24
2024-03-05T03:27:41.780Z,7.22
2024-03-05T03:30:15.045Z,7.22
2024-03-05T03:32:44.384Z,7.22
2024-03-05T03:35:14.556Z,7.22
2024-03-05T03:37:42.572Z,7.18
2024-03-05T03:40:18.907Z,7.13
2024-03-05T03:42:46.557Z,7.09
2024-03-05T03:45:18.054Z,7.06
2024-03-05T03:47:46.953Z,7.09
2024-03-05T03:50:14.822Z,7.13
2024-03-05T03:52:43.995Z,7.12
2024-03-05T03:55:12.380Z,7.13
2024-03-05T03:57:40.123Z,7.08
2024-03-05T04:00:08.385Z,7.03
2024-03-05T04:02:39.564Z,6.98
2024-03-05T04:05:10.347Z,6.95
2024-03-05T04:07:38.073Z,6.92
2024-03-05T04:10:11.407Z,6.82
2024-03-05T04:12:41.983Z,6.73
2024-03-05T04:15:09.952Z,6.68
2024-03-05T04:17:38.364Z,6.68
2024-03-05T04:20:09.496Z,6.64
2024-03-05T04:22:40.528Z,6.62
2024-03-05T04:25:08.511Z,6.56
2024-03-05T04:27:43.176Z,6.57
2024-03-05T04:30:13.204Z,6.58
2024-03-05T04:32:59.030Z,6.54
2024-03-05T04:35:29.643Z,6.47
2024-03-05T04:37:58.326Z,6.46
2024-03-05T04:40:25.851Z,6.53
2024-03-05T04:42:53.432Z,6.59
2024-03-05T04:45:22.873Z,6.61
2024-03-05T04:47:50.867Z,6.61
2024-03-05T04:50:20.328Z,6.59
2024-03-05T04:52:48.488Z,6.53
2024-03-05T04:55:16.463Z,6.45
2024-03-05T04:57:44.214Z,6.44
2024-03-05T05:00:22.097Z,6.43
2024-03-05T05:02:51.901Z,6.44
2024-03-05T05:05:20.765Z,6.42
2024-03-05T05:07:48.404Z,6.44
2024-03-05T05:10:16.303Z,6.49
2024-03-05T05:12:45.436Z,6.55
2024-03-05T05:15:13.819Z,6.56
2024-03-05T05:17:42.188Z,6.56
2024-03-05T05:20:10.228Z,6.55
2024-03-05T05:22:39.228Z,6.55
2024-03-05T05:25:09.118Z,6.59
2024-03-05T05:27:36.972Z,6.57
2024-03-05T05:30:09.473Z,6.53
2024-03-05T05:32:42.218Z,6.46
2024-03-05T05:35:10.018Z,6.44
2024-03-05T05:37:37.676Z,6.46
2024-03-05T05:40:10.787Z,6.42
2024-03-05T05:42:39.186Z,6.41
2024-03-05T05:45:10.733Z,6.41
2024-03-05T05:48:00.024Z,6.41
2024-03-05T05:50:31.943Z,6.46
2024-03-05T05:53:00.018Z,6.47
2024-03-05T05:55:28.608Z,6.42
2024-03-05T05:57:57.682Z,6.36
2024-03-05T06:00:38.577Z,6.30
2024-03-05T06:03:11.837Z,6.27
2024-03-05T06:05:43.593Z,6.24
2024-03-05T06:08:11.596Z,6.27
2024-03-05T06:10:39.339Z,6.27
2024-03-05T06:13:07.980Z,6.22
2024-03-05T06:15:39.267Z,6.18
2024-03-05T06:18:07.762Z,6.19
2024-03-05T06:20:35.270Z,6.22
2024-03-05T06:23:04.545Z,6.23
2024-03-05T06:25:33.112Z,6.19
2024-03-05T06:28:00.529Z,6.17
2024-03-05T06:30:29.249Z,6.20
2024-03-05T06:32:56.765Z,6.26
2024-03-05T06:35:27.783Z,6.24
2024-03-05T06:37:55.961Z,6.21
2024-03-05T06:40:25.020Z,6.20
2024-03-05T06:42:53.265Z,6.20
2024-03-05T06:45:28.990Z,6.26
2024-03-05T06:48:10.521Z,6.32
2024-03-05T06:50:44.243Z,6.41
2024-03-05T06:53:31.343Z,6.47
2024-03-05T06:56:18.714Z,6.54
2024-03-05T06:58:48.157Z,6.55
2024-03-05T07:01:16.705Z,6.56
2024-03-05T07:03:44.616Z,6.58
2024-03-05T07:06:13.653Z,6.61
2024-03-05T07:08:48.084Z,6.66
2024-03-05T07:11:19.393Z,6.62
2024-03-05T07:13:49.930Z,6.60
2024-03-05T07:16:19.660Z,6.59
2024-03-05T07:18:50.482Z,6.59
2024-03-05T07:21:20.093Z,6.70
2024-03-05T07:23:47.560Z,6.78
2024-03-05T07:26:16.702Z,6.81
2024-03-05T07:28:45.138Z,6.84
2024-03-05T07:31:16.619Z,6.87
2024-03-05T07:33:46.448Z,6.97
2024-03-05T07:36:15.683Z,7.01
2024-03-05T07:38:43.320Z,6.98
2024-03-05T07:41:18.016Z,6.91
2024-03-05T07:43:54.139Z,6.90
2024-03-05T07:46:21.929Z,6.96
2024-03-05T07:48:49.464Z,7.06
2024-03-05T07:51:24.176Z,7.14
2024-03-05T07:53:57.445Z,7.11
2024-03-05T07:56:25.336Z,7.14
2024-03-05T07:58:52.833Z,7.19
2024-03-05T08:01:20.500Z,7.20
2024-03-05T08:03:48.877Z,7.23
2024-03-05T08:06:16.677Z,7.34
2024-03-05T08:08:44.554Z,7.48
2024-03-05T08:11:12.933Z,7.53
2024-03-05T08:13:40.635Z,7.53
2024-03-05T08:16:10.999Z,7.53
2024-03-05T08:18:40.387Z,7.52
2024-03-05T08:21:07.816Z,7.50
2024-03-05T08:23:36.758Z,7.48
2024-03-05T08:26:06.040Z,7.51
2024-03-05T08:28:33.541Z,7.55
2024-03-05T08:31:01.191Z,7.70
2024-03-05T08:33:29.249Z,7.91
2024-03-05T08:35:56.927Z,8.21
2024-03-05T08:38:26.071Z,8.51
2024-03-05T08:40:55.206Z,9.13
2024-03-05T08:43:22.546Z,9.72
2024-03-05T08:45:50.788Z,10.02
2024-03-05T08:48:19.095Z,10.39
2024-03-05T08:50:47.363Z,10.66
2024-03-05T08:53:15.002Z,11.01
2024-03-05T08:55:42.564Z,11.37
2024-03-05T08:58:10.096Z,11.62
2024-03-05T09:00:43.118Z,11.79
2024-03-05T09:03:15.049Z,11.94
2024-03-05T09:05:45.400Z,11.98
2024-03-05T09:08:15.589Z,12.18
2024-03-05T09:10:45.957Z,12.13
2024-03-05T09:13:13.495Z,11.95
2024-03-05T09:15:44.142Z,12.07
2024-03-05T09:18:15.508Z,12.12
2024-03-05T09:20:44.157Z,12.12
2024-03-05T09:23:12.218Z,12.16
2024-03-05T09:25:42.204Z,12.32
2024-03-05T09:28:10.278Z,12.49
2024-03-05T09:30:38.433Z,12.62
2024-03-05T09:33:10.123Z,12.80
2024-03-05T09:35:38.164Z,12.93
2024-03-05T09:38:05.718Z,12.78
2024-03-05T09:40:34.404Z,12.75
2024-03-05T09:43:04.786Z,12.47
2024-03-05T09:45:37.181Z,12.10
2024-03-05T09:48:07.570Z,11.73
2024-03-05T09:50:36.842Z,11.26
2024-03-05T09:53:11.231Z,10.81
2024-03-05T09:55:45.102Z,10.48
2024-03-05T09:58:13.088Z,10.22
2024-03-05T10:00:40.636Z,10.04
2024-03-05T10:03:10.838Z,9.91
2024-03-05T10:05:41.236Z,9.83
2024-03-05T10:08:11.916Z,9.72
2024-03-05T10:10:39.636Z,9.60
2024-03-05T10:13:07.506Z,9.50
2024-03-05T10:15:42.946Z,9.39
2024-03-05T10:18:35.222Z,9.29
2024-03-05T10:21:25.765Z,9.37
2024-03-05T10:24:01.616Z,9.39
2024-03-05T10:26:33.785Z,9.25
2024-03-05T10:29:12.873Z,9.18
2024-03-05T10:31:43.522Z,9.24
2024-03-05T10:34:11.535Z,9.27
2024-03-05T10:36:48.128Z,9.23
2024-03-05T10:39:18.056Z,9.23
2024-03-05T10:41:51.852Z,9.29
2024-03-05T10:44:20.508Z,9.36
2024-03-05T10:46:53.639Z,9.39
2024-03-05T10:49:22.299Z,9.34
2024-03-05T10:51:52.763Z,9.32
2024-03-05T10:54:22.693Z,9.26
2024-03-05T10:56:52.908Z,9.36
2024-03-05T10:59:35.043Z,9.51
2024-03-05T11:02:06.911Z,9.61
2024-03-05T11:04:35.620Z,9.67
2024-03-05T11:07:06.323Z,9.76
2024-03-05T11:09:35.235Z,9.79
2024-03-05T11:12:10.104Z,9.84
2024-03-05T11:14:39.145Z,9.91
2024-03-05T11:17:11.627Z,10.02
2024-03-05T11:19:43.326Z,10.15
2024-03-05T11:22:21.683Z,10.19
2024-03-05T11:24:56.114Z,10.26
2024-03-05T11:27:29.342Z,10.29
2024-03-05T11:30:18.381Z,10.33
2024-03-05T11:32:46.419Z,10.31
2024-03-05T11:35:14.379Z,10.26
2024-03-05T11:37:53.027Z,10.19
2024-03-05T11:40:29.777Z,10.03
2024-03-05T11:42:57.242Z,9.83
2024-03-05T11:45:46.980Z,9.78
2024-03-05T11:48:21.882Z,9.83
2024-03-05T11:50:55.007Z,9.93
2024-03-05T11:53:24.809Z,9.99
2024-03-05T11:55:53.092Z,10.06
2024-03-05T11:58:24.933Z,10.18
2024-03-05T12:01:02.465Z,10.28
2024-03-05T12:03:31.921Z,10.33
2024-03-05T12:06:00.485Z,10.29
2024-03-05T12:08:27.970Z,10.17
2024-03-05T12:11:03.361Z,10.10
2024-03-05T12:13:32.636Z,10.02
2024-03-05T12:16:20.694Z,9.74
2024-03-05T12:18:50.959Z,9.46
2024-03-05T12:21:18.621Z,9.26
2024-03-05T12:23:46.309Z,9.04
2024-03-05T12:26:14.689Z,8.83
2024-03-05T12:28:43.877Z,8.65
2024-03-05T12:31:12.843Z,8.58
2024-03-05T12:33:40.837Z,8.52
2024-03-05T12:36:11.261Z,8.50
2024-03-05T12:38:38.796Z,8.61
2024-03-05T12:41:06.969Z,8.74
2024-03-05T12:43:35.379Z,8.73
2024-03-05T12:46:03.148Z,8.75
2024-03-05T12:48:35.770Z,8.81
2024-03-05T12:51:04.205Z,8.87
2024-03-05T12:53:31.875Z,8.91
2024-03-05T12:56:03.777Z,8.88
2024-03-05T12:58:49.653Z,8.74
2024-03-05T13:01:17.487Z,8.66
2024-03-05T13:03:45.669Z,8.80
2024-03-05T13:06:13.396Z,8.95
2024-03-05T13:08:41.384Z,9.10
2024-03-05T13:11:09.610Z,9.16
2024-03-05T13:13:43.582Z,9.17
2024-03-05T13:16:14.188Z,9.24
2024-03-05T13:18:42.392Z,9.28
2024-03-05T13:21:12.788Z,9.27
2024-03-05T13:23:41.215Z,9.25
2024-03-05T13:26:11.883Z,9.11
2024-03-05T13:28:42.008Z,9.04
2024-03-05T13:31:14.039Z,8.98
2024-03-05T13:34:05.752Z,8.97
2024-03-05T13:36:35.099Z,8.91
2024-03-05T13:39:09.778Z,8.90
2024-03-05T13:41:41.981Z,8.89
2024-03-05T13:44:09.616Z,8.85
2024-03-05T13:46:40.464Z,8.88
2024-03-05T13:49:14.322Z,8.94
2024-03-05T13:51:43.191Z,9.01
2024-03-05T13:54:12.677Z,9.03
2024-03-05T13:56:46.955Z,9.08
2024-03-05T13:59:17.836Z,9.13
2024-03-05T14:01:56.332Z,9.15
2024-03-05T14:04:25.328Z,9.16
2024-03-05T14:06:53.100Z,9.10
2024-03-05T14:09:22.698Z,9.04
2024-03-05T14:11:53.801Z,9.06
2024-03-05T14:14:21.689Z,9.01
2024-03-05T14:16:50.068Z,9.00
2024-03-05T14:19:17.736Z,8.95
2024-03-05T14:21:45.281Z,8.97
2024-03-05T14:24:13.756Z,8.95
2024-03-05T14:26:42.947Z,8.79
2024-03-05T14:29:11.673Z,8.72
2024-03-05T14:31:39.436Z,8.70
2024-03-05T14:34:07.283Z,8.65
2024-03-05T14:36:37.593Z,8.62
2024-03-05T14:39:11.093Z,8.60
2024-03-05T14:41:39.288Z,8.59
2024-03-05T14:44:09.908Z,8.57
2024-03-05T14:46:38.626Z,8.61
2024-03-05T14:49:09.563Z,8.56
2024-03-05T14:51:36.862Z,8.48
2024-03-05T14:54:04.640Z,8.43
2024-03-05T14:56:35.087Z,8.41
2024-03-05T14:59:04.464Z,8.31
2024-03-05T15:01:32.458Z,8.28
2024-03-05T15:04:01.153Z,8.35
2024-03-05T15:06:28.553Z,8.37
2024-03-05T15:08:56.100Z,8.34
2024-03-05T15:11:24.369Z,8.33
2024-03-05T15:13:58.066Z,8.30
2024-03-05T15:16:26.000Z,8.29
2024-03-05T15:18:53.658Z,8.21
2024-03-05T15:21:22.831Z,8.12
2024-03-05T15:23:52.394Z,8.06
2024-03-05T15:26:19.770Z,8.04
2024-03-05T15:28:49.430Z,8.03
2024-03-05T15:31:17.151Z,8.07
2024-03-05T15:33:44.441Z,8.15
2024-03-05T15:36:12.027Z,8.16
2024-03-05T15:38:39.526Z,8.11
2024-03-05T15:41:07.209Z,8.08
2024-03-05T15:43:37.734Z,8.00
2024-03-05T15:46:08.260Z,7.99
2024-03-05T15:48:37.606Z,8.05
2024-03-05T15:51:07.107Z,8.09
2024-03-05T15:53:34.770Z,8.08
2024-03-05T15:56:02.725Z,8.02
2024-03-05T15:58:45.541Z,7.99
2024-03-05T16:01:17.938Z,7.98
2024-03-05T16:03:57.095Z,7.93
2024-03-05T16:06:34.648Z,7.88
2024-03-05T16:09:04.550Z,7.87
2024-03-05T16:11:32.429Z,7.85
2024-03-05T16:14:01.121Z,7.82
2024-03-05T16:16:28.881Z,7.83
2024-03-05T16:18:58.988Z,7.77
2024-03-05T16:21:28.249Z,7.70
2024-03-05T16:23:57.095Z,7.69
2024-03-05T16:26:25.202Z,7.70
2024-03-05T16:28:53.347Z,7.70
2024-03-05T16:31:22.942Z,7.69
2024-03-05T16:33:51.104Z,7.62
2024-03-05T16:36:18.733Z,7.56
2024-03-05T16:38:48.356Z,7.51
2024-03-05T16:41:17.775Z,7.49
2024-03-05T16:43:45.465Z,7.38
2024-03-05T16:46:13.084Z,7.33
2024-03-05T16:48:40.553Z,7.33
2024-03-05T16:51:08.105Z,7.36
2024-03-05T16:53:37.104Z,7.42
2024-03-05T16:56:05.256Z,7.47
2024-03-05T16:58:35.989Z,7.52
2024-03-05T17:01:07.948Z,7.47
2024-03-05T17:03:35.909Z,7.39
2024-03-05T17:06:08.569Z,7.39
2024-03-05T17:08:36.542Z,7.43
2024-03-05T17:11:09.858Z,7.42
2024-03-05T17:13:42.446Z,7.36
2024-03-05T17:16:12.154Z,7.29
2024-03-05T17:18:39.572Z,7.16
2024-03-05T17:21:08.351Z,7.08
2024-03-05T17:23:41.757Z,7.06
2024-03-05T17:26:12.938Z,7.03
2024-03-05T17:28:42.321Z,7.05
2024-03-05T17:31:10.620Z,7.03
2024-03-05T17:33:39.019Z,7.04
2024-03-05T17:36:07.393Z,7.09
2024-03-05T17:41:53.492Z,7.08
2024-03-05T17:44:22.295Z,7.12
2024-03-05T17:46:51.512Z,7.17
2024-03-05T17:49:19.571Z,7.21
2024-03-05T17:51:47.208Z,7.23
2024-03-05T17:54:15.424Z,7.24
2024-03-05T17:56:44.090Z,7.22
2024-03-05T17:59:11.708Z,7.23
2024-03-05T18:01:41.438Z,7.31
2024-03-05T18:04:17.533Z,7.36
2024-03-05T18:07:00.211Z,7.38
2024-03-05T18:09:32.223Z,7.34
2024-03-05T18:12:04.291Z,7.34
2024-03-05T18:14:39.574Z,7.32
2024-03-05T18:17:19.778Z,7.32
2024-03-05T18:19:55.429Z,7.34
2024-03-05T18:22:33.595Z,7.36
2024-03-05T18:25:18.860Z,7.37
2024-03-05T18:28:00.605Z,7.40
2024-03-05T18:30:45.765Z,7.43
2024-03-05T18:33:24.453Z,7.46
2024-03-05T18:36:01.645Z,7.48
2024-03-05T18:38:35.517Z,7.50
2024-03-05T18:41:10.924Z,7.50
2024-03-05T18:43:51.703Z,7.46
2024-03-05T18:46:20.536Z,7.44
2024-03-05T18:48:48.528Z,7.39
2024-03-05T18:51:15.933Z,7.34
2024-03-05T18:53:46.819Z,7.32
2024-03-05T18:56:18.085Z,7.29
2024-03-05T18:58:46.227Z,7.28
2024-03-05T19:01:16.136Z,7.23
2024-03-05T19:03:44.664Z,7.27
2024-03-05T19:06:12.311Z,7.29
2024-03-05T19:08:39.910Z,7.30
2024-03-05T19:11:09.870Z,7.26
2024-03-05T19:13:38.657Z,7.24
2024-03-05T19:16:21.260Z,7.26
2024-03-05T19:18:48.889Z,7.28
2024-03-05T19:21:17.492Z,7.25
2024-03-05T19:23:46.829Z,7.25
2024-03-05T19:26:15.089Z,7.23
2024-03-05T19:28:42.636Z,7.20
2024-03-05T19:31:10.772Z,7.20
2024-03-05T19:33:41.822Z,7.18
2024-03-05T19:36:14.249Z,7.18
2024-03-05T19:38:43.424Z,7.21
2024-03-05T19:41:11.949Z,7.22
2024-03-05T19:43:42.594Z,7.22
2024-03-05T19:46:11.484Z,7.23
2024-03-05T19:48:38.845Z,7.22
2024-03-05T19:51:11.460Z,7.18
2024-03-05T19:53:39.064Z,7.12
2024-03-05T19:56:06.745Z,7.08
2024-03-05T19:58:34.918Z,7.08
2024-03-05T20:01:03.386Z,7.07
2024-03-05T20:03:31.375Z,7.02
2024-03-05T20:06:02.670Z,7.04
2024-03-05T20:08:34.071Z,7.02
2024-03-05T20:11:01.843Z,7.04
2024-03-05T20:13:29.393Z,7.08
2024-03-05T20:15:57.079Z,7.12
2024-03-05T20:18:24.676Z,7.15
2024-03-05T20:20:52.586Z,7.13
2024-03-05T20:23:20.153Z,7.09
2024-03-05T20:25:48.513Z,7.12
2024-03-05T20:28:17.810Z,7.11
2024-03-05T20:30:46.421Z,7.09
2024-03-05T20:33:16.146Z,7.03
2024-03-05T20:35:43.961Z,7.01
2024-03-05T20:38:12.661Z,7.01
2024-03-05T20:40:40.472Z,7.06
2024-03-05T20:43:10.388Z,7.04
2024-03-05T20:45:39.071Z,7.03
2024-03-05T20:48:08.350Z,7.03
2024-03-05T20:50:36.163Z,6.99
2024-03-05T20:53:06.636Z,6.93
2024-03-05T20:55:50.106Z,6.90
2024-03-05T20:58:17.814Z,6.91
2024-03-05T21:00:46.067Z,6.92
2024-03-05T21:03:18.862Z,6.93
2024-03-05T21:05:47.796Z,6.95
2024-03-05T21:08:15.737Z,6.99
2024-03-05T21:10:48.002Z,6.99
2024-03-05T21:13:18.169Z,6.94
2024-03-05T21:15:46.224Z,6.95
2024-03-05T21:18:14.684Z,6.92
2024-03-05T21:20:45.202Z,6.86
2024-03-05T21:23:18.527Z,6.87
2024-03-05T21:26:02.911Z,6.90
2024-03-05T21:28:36.466Z,6.91
2024-03-05T21:31:04.427Z,6.90
2024-03-05T21:33:34.076Z,6.85
2024-03-05T21:36:05.593Z,6.84
2024-03-05T21:38:35.594Z,6.87
2024-03-05T21:41:03.545Z,6.91
2024-03-05T21:43:31.208Z,6.91
2024-03-05T21:45:59.241Z,6.88
2024-03-05T21:48:26.965Z,6.90
2024-03-05T21:51:00.252Z,6.93
2024-03-05T21:53:34.384Z,6.98
2024-03-05T21:56:02.698Z,6.98
2024-03-05T21:58:30.435Z,6.98
2024-03-05T22:00:58.371Z,7.00
2024-03-05T22:03:26.282Z,7.01
2024-03-05T22:05:54.724Z,7.02
2024-03-05T22:08:23.601Z,7.02
2024-03-05T22:10:51.670Z,7.04
2024-03-05T22:13:19.748Z,7.07
2024-03-05T22:15:47.266Z,7.09
2024-03-05T22:18:16.526Z,7.09
2024-03-05T22:20:46.720Z,7.08
2024-03-05T22:23:14.637Z,7.09
2024-03-05T22:25:43.895Z,7.05
2024-03-05T22:28:11.484Z,6.96
2024-03-05T22:30:39.412Z,6.92
2024-03-05T22:33:07.561Z,6.90
2024-03-05T22:35:35.326Z,6.91
2024-03-05T22:38:03.922Z,6.91
2024-03-05T22:40:31.943Z,6.89
2024-03-05T22:42:59.884Z,6.87
2024-03-05T22:45:28.749Z,6.86
2024-03-05T22:47:56.774Z,6.85
2024-03-05T22:50:24.732Z,6.81
2024-03-05T22:52:53.465Z,6.77
2024-03-05T22:55:21.251Z,6.75
2024-03-05T22:57:49.076Z,6.74
2024-03-05T23:00:23.680Z,6.73
2024-03-05T23:02:54.991Z,6.66
2024-03-05T23:05:23.430Z,6.65
2024-03-05T23:07:52.332Z,6.68
2024-03-05T23:10:20.075Z,6.70
2024-03-05T23:12:48.306Z,6.65
2024-03-05T23:15:16.971Z,6.67
2024-03-05T23:17:45.055Z,6.70
2024-03-05T23:20:12.987Z,6.69
2024-03-05T23:22:41.129Z,6.69
2024-03-05T23:25:09.775Z,6.74
2024-03-05T23:27:40.632Z,6.74
2024-03-05T23:30:09.827Z,6.72
2024-03-05T23:32:40.076Z,6.73
2024-03-05T23:35:08.413Z,6.70
2024-03-05T23:37:36.796Z,6.65
2024-03-05T23:40:07.440Z,6.67
2024-03-05T23:42:35.494Z,6.63
2024-03-05T23:45:07.085Z,6.57
2024-03-05T23:47:35.076Z,6.52
2024-03-05T23:50:03.266Z,6.52
2024-03-05T23:52:33.445Z,6.48
2024-03-05T23:55:02.707Z,6.50
2024-03-05T23:57:30.914Z,6.51
2024-03-05T23:59:58.845Z,6.53
